createdAt,value
2023-08-07T00:00:25.914Z,97096.16
2023-08-07T00:02:52.615Z,97101.91
2023-08-07T00:05:19.195Z,97103.72
2023-08-07T00:07:46.047Z,97106.16
2023-08-07T00:10:15.611Z,97095.28
2023-08-07T00:12:45.076Z,97095.38
2023-08-07T00:15:12.477Z,97091.78
2023-08-07T00:17:39.902Z,97088.56
2023-08-07T00:20:07.509Z,97089.50
2023-08-07T00:22:36.473Z,97089.16
2023-08-07T00:25:05.333Z,97086.69
2023-08-07T00:27:31.932Z,97090.75
2023-08-07T00:29:58.537Z,97091.88
2023-08-07T00:32:27.394Z,97082.88
2023-08-07T00:34:54.040Z,97091.28
2023-08-07T00:37:22.870Z,97085.41
2023-08-07T00:39:49.494Z,97091.22
2023-08-07T00:42:16.175Z,97093.56
2023-08-07T00:44:42.734Z,97085.75
2023-08-07T00:47:09.570Z,97086.19
2023-08-07T00:49:37.004Z,97088.28
2023-08-07T00:52:09.076Z,97084.31
2023-08-07T00:54:35.739Z,97084.50
2023-08-07T00:57:13.141Z,97086.44
2023-08-07T00:59:43.062Z,97087.22
2023-08-07T01:02:13.901Z,97085.84
2023-08-07T01:04:45.536Z,97089.41
2023-08-07T01:07:12.104Z,97098.69
2023-08-07T01:09:38.950Z,97098.44
2023-08-07T01:12:23.188Z,97089.06
2023-08-07T01:15:12.035Z,97087.97
2023-08-07T01:17:38.994Z,97089.66
2023-08-07T01:20:06.584Z,97085.94
2023-08-07T01:22:35.509Z,97088.47
2023-08-07T01:25:02.237Z,97085.31
2023-08-07T01:27:44.677Z,97085.84
2023-08-07T01:30:23.239Z,97093.91
2023-08-07T01:33:10.657Z,97090.84
2023-08-07T01:35:47.284Z,97090.97
2023-08-07T01:38:19.593Z,97088.38
2023-08-07T01:40:47.570Z,97090.25
2023-08-07T01:43:20.332Z,97090.75
2023-08-07T01:45:47.284Z,97101.44
2023-08-07T01:48:13.982Z,97095.13
2023-08-07T01:50:42.840Z,97095.13
2023-08-07T01:53:09.513Z,97090.94
2023-08-07T01:55:36.179Z,97099.84
2023-08-07T01:58:05.138Z,97105.22
2023-08-07T02:00:36.461Z,97107.44
2023-08-07T02:03:05.550Z,97107.22
2023-08-07T02:05:34.442Z,97110.19
2023-08-07T02:08:01.077Z,97116.38
2023-08-07T02:10:30.202Z,97115.97
2023-08-07T02:12:59.307Z,97120.47
2023-08-07T02:15:30.691Z,97114.25
2023-08-07T02:17:59.545Z,97116.97
2023-08-07T02:20:31.311Z,97120.97
2023-08-07T02:22:57.977Z,97120.47
2023-08-07T02:25:26.604Z,97111.84
2023-08-07T02:27:53.221Z,97111.09
2023-08-07T02:30:22.070Z,97121.13
2023-08-07T02:32:50.948Z,97126.13
2023-08-07T02:35:17.653Z,97131.13
2023-08-07T02:37:44.388Z,97131.66
2023-08-07T02:40:12.117Z,97125.16
2023-08-07T02:42:41.091Z,97122.88
2023-08-07T02:45:08.203Z,97122.94
2023-08-07T02:47:37.085Z,97122.94
2023-08-07T02:50:03.920Z,97124.13
2023-08-07T02:52:33.086Z,97121.47
2023-08-07T02:54:59.769Z,97125.38
2023-08-07T02:57:26.905Z,97121.91
2023-08-07T02:59:56.402Z,97128.53
2023-08-07T03:02:23.060Z,97133.13
2023-08-07T03:04:54.168Z,97128.59
2023-08-07T03:07:23.508Z,97134.88
2023-08-07T03:09:50.140Z,97129.38
2023-08-07T03:12:21.271Z,97121.72
2023-08-07T03:14:47.930Z,97136.94
2023-08-07T03:17:14.503Z,97132.75
2023-08-07T03:19:46.066Z,97136.28
2023-08-07T03:22:12.753Z,97133.16
2023-08-07T03:24:44.102Z,97137.16
2023-08-07T03:27:10.725Z,97132.47
2023-08-07T03:29:39.812Z,97132.47
2023-08-07T03:32:09.630Z,97121.25
2023-08-07T03:34:38.695Z,97122.28
2023-08-07T03:37:05.421Z,97119.56
2023-08-07T03:39:32.021Z,97117.38
2023-08-07T03:42:00.979Z,97118.59
2023-08-07T03:44:27.605Z,97116.13
2023-08-07T03:46:57.149Z,97127.56
2023-08-07T03:49:24.581Z,97133.91
2023-08-07T03:51:53.602Z,97134.53
2023-08-07T03:54:20.201Z,97134.38
2023-08-07T03:56:48.005Z,97137.19
2023-08-07T03:59:14.703Z,97139.31
2023-08-07T04:01:43.670Z,97144.56
2023-08-07T04:04:12.547Z,97140.31
2023-08-07T04:06:39.343Z,97141.75
2023-08-07T04:09:06.055Z,97140.22
2023-08-07T04:11:34.655Z,97130.97
2023-08-07T04:14:04.024Z,97139.38
2023-08-07T04:16:32.338Z,97140.22
2023-08-07T04:18:59.057Z,97141.19
2023-08-07T04:21:31.315Z,97142.25
2023-08-07T04:23:58.006Z,97148.84
2023-08-07T04:26:24.686Z,97145.53
2023-08-07T04:28:53.540Z,97154.22
2023-08-07T04:31:20.169Z,97148.25
2023-08-07T04:33:46.795Z,97156.50
2023-08-07T04:36:15.836Z,97154.91
2023-08-07T04:38:42.817Z,97155.31
2023-08-07T04:41:09.434Z,97159.16
2023-08-07T04:43:36.044Z,97152.47
2023-08-07T04:46:04.988Z,97161.88
2023-08-07T04:48:34.156Z,97159.34
2023-08-07T04:51:07.864Z,97159.22
2023-08-07T04:53:36.744Z,97157.44
2023-08-07T04:56:03.831Z,97157.94
2023-08-07T04:58:30.473Z,97166.31
2023-08-07T05:00:58.327Z,97165.47
2023-08-07T05:03:25.562Z,97164.53
2023-08-07T05:05:52.316Z,97171.78
2023-08-07T05:08:18.883Z,97159.38
2023-08-07T05:10:48.185Z,97165.41
2023-08-07T05:13:17.049Z,97161.22
2023-08-07T05:15:48.564Z,97168.56
2023-08-07T05:18:15.214Z,97163.97
2023-08-07T05:20:41.927Z,97166.88
2023-08-07T05:23:12.358Z,97158.47
2023-08-07T05:25:39.213Z,97165.09
2023-08-07T05:28:10.584Z,97165.53
2023-08-07T05:30:42.070Z,97164.84
2023-08-07T05:33:08.660Z,97158.63
2023-08-07T05:35:35.505Z,97159.63
2023-08-07T05:38:02.606Z,97163.13
2023-08-07T05:40:30.808Z,97166.44
2023-08-07T05:42:57.837Z,97166.19
2023-08-07T05:45:26.784Z,97171.22
2023-08-07T05:47:55.849Z,97174.13
2023-08-07T05:50:24.854Z,97161.44
2023-08-07T05:52:56.203Z,97167.69
2023-08-07T05:55:22.788Z,97168.09
2023-08-07T05:57:53.884Z,97166.44
2023-08-07T06:00:20.909Z,97169.97
2023-08-07T06:02:47.584Z,97174.56
2023-08-07T06:05:15.926Z,97173.34
2023-08-07T06:07:42.883Z,97172.44
2023-08-07T06:10:12.360Z,97181.16
2023-08-07T06:12:41.574Z,97179.13
2023-08-07T06:15:08.631Z,97183.06
2023-08-07T06:17:37.436Z,97191.78
2023-08-07T06:20:05.944Z,97198.69
2023-08-07T06:22:33.916Z,97185.56
2023-08-07T06:25:00.563Z,97192.53
2023-08-07T06:27:29.774Z,97187.41
2023-08-07T06:29:56.869Z,97180.72
2023-08-07T06:32:23.959Z,97192.84
2023-08-07T06:34:52.910Z,97190.59
2023-08-07T06:37:21.870Z,97188.00
2023-08-07T06:39:50.940Z,97193.75
2023-08-07T06:42:17.552Z,97185.84
2023-08-07T06:44:44.676Z,97191.28
2023-08-07T06:47:11.687Z,97201.38
2023-08-07T06:49:38.339Z,97204.84
2023-08-07T06:52:07.722Z,97209.50
2023-08-07T06:54:36.770Z,97206.50
2023-08-07T06:57:03.613Z,97203.34
2023-08-07T06:59:32.529Z,97200.41
2023-08-07T07:01:59.845Z,97207.28
2023-08-07T07:04:26.814Z,97205.75
2023-08-07T07:06:56.523Z,97204.22
2023-08-07T07:09:29.840Z,97209.13
2023-08-07T07:11:57.121Z,97215.72
2023-08-07T07:14:24.648Z,97220.13
2023-08-07T07:16:51.337Z,97215.66
2023-08-07T07:19:18.138Z,97226.06
2023-08-07T07:21:44.744Z,97226.34
2023-08-07T07:24:13.822Z,97232.16
2023-08-07T07:26:40.932Z,97240.06
2023-08-07T07:29:09.844Z,97231.94
2023-08-07T07:31:36.636Z,97241.16
2023-08-07T07:34:05.543Z,97241.03
2023-08-07T07:36:34.448Z,97249.28
2023-08-07T07:39:01.093Z,97262.72
2023-08-07T07:41:28.979Z,97256.41
2023-08-07T07:44:00.658Z,97254.25
2023-08-07T07:46:27.230Z,97253.94
2023-08-07T07:48:54.307Z,97255.28
2023-08-07T07:51:21.205Z,97251.22
2023-08-07T07:54:00.755Z,97259.31
2023-08-07T07:56:39.647Z,97265.44
2023-08-07T07:59:09.556Z,97273.06
2023-08-07T08:01:36.880Z,97271.09
2023-08-07T08:04:06.275Z,97277.66
2023-08-07T08:06:35.458Z,97291.41
2023-08-07T08:09:05.425Z,97285.72
2023-08-07T08:11:33.032Z,97288.56
2023-08-07T08:13:59.818Z,97276.19
2023-08-07T08:16:28.672Z,97284.38
2023-08-07T08:18:57.729Z,97286.47
2023-08-07T08:21:28.905Z,97270.31
2023-08-07T08:23:57.756Z,97282.25
2023-08-07T08:26:26.714Z,97290.97
2023-08-07T08:28:58.361Z,97299.66
2023-08-07T08:31:25.528Z,97295.69
2023-08-07T08:33:52.335Z,97292.31
2023-08-07T08:36:19.109Z,97282.03
2023-08-07T08:38:49.641Z,97287.16
2023-08-07T08:41:20.369Z,97287.44
2023-08-07T08:43:51.299Z,97285.38
2023-08-07T08:46:21.058Z,97284.88
2023-08-07T08:48:52.256Z,97281.09
2023-08-07T08:51:27.523Z,97277.44
2023-08-07T08:53:57.485Z,97281.72
2023-08-07T08:56:29.334Z,97285.94
2023-08-07T08:58:56.617Z,97273.22
2023-08-07T09:01:26.374Z,97275.28
2023-08-07T09:03:59.331Z,97274.31
2023-08-07T09:06:32.502Z,97273.00
2023-08-07T09:08:59.860Z,97265.56
2023-08-07T09:11:30.357Z,97264.00
2023-08-07T09:13:59.315Z,97262.22
2023-08-07T09:16:27.817Z,97276.72
2023-08-07T09:18:56.462Z,97276.50
2023-08-07T09:21:28.176Z,97269.09
2023-08-07T09:23:55.353Z,97265.25
2023-08-07T09:26:27.914Z,97262.19
2023-08-07T09:28:55.062Z,97270.50
2023-08-07T09:31:27.567Z,97270.38
2023-08-07T09:33:54.304Z,97269.69
2023-08-07T09:36:21.182Z,97273.06
2023-08-07T09:38:53.860Z,97284.06
2023-08-07T09:41:21.321Z,97273.44
2023-08-07T09:43:50.409Z,97272.38
2023-08-07T09:46:22.325Z,97279.88
2023-08-07T09:48:49.325Z,97278.34
2023-08-07T09:51:18.893Z,97273.88
2023-08-07T09:53:45.947Z,97274.41
2023-08-07T09:56:13.100Z,97268.72
2023-08-07T09:58:47.703Z,97282.22
2023-08-07T10:01:17.438Z,97273.50
2023-08-07T10:03:47.291Z,97268.72
2023-08-07T10:06:15.345Z,97267.34
2023-08-07T10:08:46.038Z,97267.50
2023-08-07T10:11:18.335Z,97270.09
2023-08-07T10:13:46.431Z,97274.69
2023-08-07T10:16:14.064Z,97280.78
2023-08-07T10:18:43.942Z,97276.22
2023-08-07T10:21:11.785Z,97285.22
2023-08-07T10:23:42.121Z,97280.34
2023-08-07T10:26:12.509Z,97279.13
2023-08-07T10:28:41.860Z,97282.47
2023-08-07T10:31:12.783Z,97285.66
2023-08-07T10:33:42.164Z,97277.25
2023-08-07T10:36:16.932Z,97292.72
2023-08-07T10:38:48.050Z,97287.50
2023-08-07T10:41:15.664Z,97289.00
2023-08-07T10:43:44.444Z,97286.50
2023-08-07T10:46:25.238Z,97288.47
2023-08-07T10:48:58.517Z,97300.34
2023-08-07T10:51:33.615Z,97297.19
2023-08-07T10:54:02.508Z,97303.72
2023-08-07T10:56:43.224Z,97295.88
2023-08-07T10:59:13.617Z,97297.06
2023-08-07T11:01:40.573Z,97304.25
2023-08-07T11:04:12.767Z,97303.75
2023-08-07T11:06:44.458Z,97305.91
2023-08-07T11:09:14.046Z,97300.59
2023-08-07T11:11:41.997Z,97308.34
2023-08-07T11:14:21.263Z,97306.59
2023-08-07T11:16:53.162Z,97300.91
2023-08-07T11:19:20.647Z,97307.75
2023-08-07T11:21:47.345Z,97295.88
2023-08-07T11:24:21.295Z,97304.28
2023-08-07T11:26:48.219Z,97298.31
2023-08-07T11:29:21.616Z,97308.84
2023-08-07T11:31:51.317Z,97303.47
2023-08-07T11:34:23.962Z,97293.78
2023-08-07T11:36:52.856Z,97300.09
2023-08-07T11:39:20.777Z,97290.06
2023-08-07T11:41:51.311Z,97294.91
2023-08-07T11:44:18.571Z,97292.09
2023-08-07T11:46:45.301Z,97295.56
2023-08-07T11:49:13.265Z,97301.34
2023-08-07T11:51:40.119Z,97298.47
2023-08-07T11:54:17.288Z,97301.84
2023-08-07T11:56:46.784Z,97297.34
2023-08-07T11:59:17.815Z,97289.97
2023-08-07T12:01:46.983Z,97288.69
2023-08-07T12:04:21.375Z,97296.03
2023-08-07T12:07:02.246Z,97292.97
2023-08-07T12:09:31.508Z,97297.50
2023-08-07T12:12:03.388Z,97283.38
2023-08-07T12:14:30.977Z,97303.91
2023-08-07T12:16:58.134Z,97285.53
2023-08-07T12:19:25.221Z,97291.53
2023-08-07T12:21:56.714Z,97292.53
2023-08-07T12:24:23.975Z,97287.88
2023-08-07T12:26:50.687Z,97280.41
2023-08-07T12:29:17.273Z,97285.50
2023-08-07T12:31:46.178Z,97286.03
2023-08-07T12:36:46.505Z,97276.19
2023-08-07T12:39:13.063Z,97274.38
2023-08-07T12:41:45.330Z,97279.59
2023-08-07T12:44:28.784Z,97276.22
2023-08-07T12:46:57.874Z,97278.56
2023-08-07T12:49:25.354Z,97276.28
2023-08-07T12:51:54.802Z,97270.72
2023-08-07T12:54:21.435Z,97280.63
2023-08-07T12:56:48.097Z,97279.63
2023-08-07T12:59:14.668Z,97272.69
2023-08-07T13:01:44.777Z,97283.38
2023-08-07T13:04:13.504Z,97292.06
2023-08-07T13:06:42.607Z,97299.53
2023-08-07T13:09:12.742Z,97311.03
2023-08-07T13:11:39.382Z,97300.13
2023-08-07T13:14:07.160Z,97294.25
2023-08-07T13:16:37.228Z,97290.06
2023-08-07T13:19:05.556Z,97287.16
2023-08-07T13:21:35.126Z,97284.00
2023-08-07T13:24:04.378Z,97279.69
2023-08-07T13:26:33.748Z,97291.16
2023-08-07T13:29:00.390Z,97289.88
2023-08-07T13:31:27.537Z,97307.06
2023-08-07T13:33:54.199Z,97306.59
2023-08-07T13:36:20.736Z,97315.41
2023-08-07T13:38:47.818Z,97314.44
2023-08-07T13:41:17.448Z,97317.63
2023-08-07T13:43:46.748Z,97309.03
2023-08-07T13:46:15.559Z,97307.59
2023-08-07T13:48:42.600Z,97310.03
2023-08-07T13:51:11.896Z,97309.97
2023-08-07T13:53:38.518Z,97309.25
2023-08-07T13:56:08.254Z,97310.03
2023-08-07T13:58:37.090Z,97306.59
2023-08-07T14:01:06.274Z,97314.25
2023-08-07T14:03:35.554Z,97308.00
2023-08-07T14:06:05.418Z,97304.75
2023-08-07T14:08:34.420Z,97314.66
2023-08-07T14:11:01.590Z,97301.06
2023-08-07T14:13:28.260Z,97301.06
2023-08-07T14:15:56.913Z,97304.84
2023-08-07T14:18:25.883Z,97309.09
2023-08-07T14:21:02.795Z,97308.47
2023-08-07T14:23:31.575Z,97306.91
2023-08-07T14:26:00.773Z,97308.44
2023-08-07T14:28:30.036Z,97306.50
2023-08-07T14:31:02.678Z,97317.16
2023-08-07T14:33:29.832Z,97327.00
2023-08-07T14:35:56.540Z,97324.28
2023-08-07T14:38:23.121Z,97319.28
2023-08-07T14:40:49.736Z,97330.50
2023-08-07T14:43:18.591Z,97331.31
2023-08-07T14:45:47.552Z,97333.50
2023-08-07T14:48:19.673Z,97335.97
2023-08-07T14:50:48.933Z,97329.63
2023-08-07T14:53:15.509Z,97325.19
2023-08-07T14:55:42.915Z,97328.81
2023-08-07T14:58:09.477Z,97333.41
2023-08-07T15:00:36.465Z,97331.09
2023-08-07T15:03:07.722Z,97331.31
2023-08-07T15:05:34.439Z,97326.56
2023-08-07T15:08:03.754Z,97325.19
2023-08-07T15:10:30.744Z,97327.03
2023-08-07T15:12:57.540Z,97333.53
2023-08-07T15:15:28.692Z,97318.31
2023-08-07T15:18:00.127Z,97324.28
2023-08-07T15:20:26.882Z,97329.00
2023-08-07T15:22:53.632Z,97325.94
2023-08-07T15:25:20.261Z,97342.28
2023-08-07T15:27:49.354Z,97347.72
2023-08-07T15:30:15.997Z,97343.69
2023-08-07T15:32:42.640Z,97349.19
2023-08-07T15:35:09.876Z,97346.66
2023-08-07T15:37:36.988Z,97347.34
2023-08-07T15:40:06.471Z,97347.28
2023-08-07T15:42:35.490Z,97348.50
2023-08-07T15:45:06.013Z,97347.53
2023-08-07T15:47:32.710Z,97335.44
2023-08-07T15:49:59.394Z,97343.56
2023-08-07T15:52:26.801Z,97332.03
2023-08-07T15:54:53.397Z,97322.78
2023-08-07T15:57:22.333Z,97330.25
2023-08-07T15:59:51.411Z,97324.00
2023-08-07T16:02:18.134Z,97319.88
2023-08-07T16:04:47.248Z,97316.75
2023-08-07T16:07:18.776Z,97322.47
2023-08-07T16:09:48.146Z,97321.25
2023-08-07T16:12:15.021Z,97321.84
2023-08-07T16:14:41.704Z,97319.91
2023-08-07T16:17:11.369Z,97321.41
2023-08-07T16:19:38.044Z,97312.34
2023-08-07T16:22:04.970Z,97317.97
2023-08-07T16:24:31.615Z,97311.59
2023-08-07T16:27:00.747Z,97311.84
2023-08-07T16:29:27.642Z,97311.28
2023-08-07T16:31:54.645Z,97311.78
2023-08-07T16:34:24.237Z,97315.75
2023-08-07T16:36:53.591Z,97306.56
2023-08-07T16:39:22.721Z,97310.38
2023-08-07T16:41:49.402Z,97300.91
2023-08-07T16:44:18.736Z,97311.47
2023-08-07T16:46:47.862Z,97307.03
2023-08-07T16:49:14.904Z,97304.56
2023-08-07T16:51:49.606Z,97303.97
2023-08-07T16:54:16.448Z,97303.94
2023-08-07T16:56:43.527Z,97308.53
2023-08-07T16:59:11.200Z,97310.09
2023-08-07T17:01:37.839Z,97309.19
2023-08-07T17:04:05.062Z,97313.69
2023-08-07T17:06:33.737Z,97309.91
2023-08-07T17:09:00.759Z,97309.16
2023-08-07T17:11:29.589Z,97307.31
2023-08-07T17:13:56.478Z,97308.53
2023-08-07T17:16:26.096Z,97308.38
2023-08-07T17:18:52.970Z,97309.88
2023-08-07T17:21:24.815Z,97304.56
2023-08-07T17:23:51.388Z,97316.75
2023-08-07T17:26:18.420Z,97303.63
2023-08-07T17:28:45.061Z,97303.16
2023-08-07T17:31:11.697Z,97309.06
2023-08-07T17:33:39.328Z,97300.50
2023-08-07T17:36:08.770Z,97303.25
2023-08-07T17:38:35.563Z,97303.81
2023-08-07T17:41:04.785Z,97301.41
2023-08-07T17:43:34.072Z,97304.81
2023-08-07T17:46:03.383Z,97309.44
2023-08-07T17:48:32.422Z,97308.13
2023-08-07T17:51:01.838Z,97302.75
2023-08-07T17:53:30.904Z,97303.66
2023-08-07T17:56:00.330Z,97306.78
2023-08-07T17:58:30.002Z,97300.88
2023-08-07T18:00:56.717Z,97302.34
2023-08-07T18:03:26.087Z,97309.53
2023-08-07T18:05:52.680Z,97306.88
2023-08-07T18:08:21.846Z,97314.31
2023-08-07T18:10:50.742Z,97312.78
2023-08-07T18:13:17.377Z,97311.47
2023-08-07T18:15:44.006Z,97305.81
2023-08-07T18:18:12.993Z,97303.00
2023-08-07T18:20:39.826Z,97304.91
2023-08-07T18:23:08.918Z,97306.13
2023-08-07T18:25:35.647Z,97305.16
2023-08-07T18:28:04.666Z,97307.38
2023-08-07T18:30:33.770Z,97317.31
2023-08-07T18:33:00.583Z,97300.72
2023-08-07T18:35:27.687Z,97305.31
2023-08-07T18:37:56.577Z,97300.94
2023-08-07T18:40:23.689Z,97310.13
2023-08-07T18:42:50.351Z,97309.44
2023-08-07T18:45:17.057Z,97299.03
2023-08-07T18:47:46.039Z,97304.81
2023-08-07T18:50:13.138Z,97310.81
2023-08-07T18:52:39.782Z,97311.03
2023-08-07T18:55:08.977Z,97302.38
2023-08-07T18:57:36.020Z,97308.72
2023-08-07T19:00:03.100Z,97311.72
2023-08-07T19:02:32.614Z,97311.59
2023-08-07T19:04:59.752Z,97313.72
2023-08-07T19:07:26.405Z,97311.56
2023-08-07T19:09:55.458Z,97315.25
2023-08-07T19:12:25.490Z,97323.09
2023-08-07T19:14:54.390Z,97314.66
2023-08-07T19:17:21.045Z,97324.13
2023-08-07T19:19:47.637Z,97316.56
2023-08-07T19:22:14.657Z,97320.16
2023-08-07T19:24:41.295Z,97324.91
2023-08-07T19:27:07.958Z,97322.19
2023-08-07T19:29:34.602Z,97322.69
2023-08-07T19:32:01.270Z,97328.56
2023-08-07T19:34:28.386Z,97329.41
2023-08-07T19:36:55.047Z,97333.34
2023-08-07T19:39:23.754Z,97326.09
2023-08-07T19:41:52.722Z,97329.97
2023-08-07T19:44:19.447Z,97324.91
2023-08-07T19:46:48.381Z,97328.34
2023-08-07T19:49:17.549Z,97335.88
2023-08-07T19:51:44.885Z,97330.88
2023-08-07T19:54:12.762Z,97335.56
2023-08-07T19:56:39.377Z,97334.13
2023-08-07T19:59:06.332Z,97343.13
2023-08-07T20:01:35.611Z,97337.53
2023-08-07T20:04:02.464Z,97339.06
2023-08-07T20:06:29.123Z,97335.06
2023-08-07T20:08:58.796Z,97341.28
2023-08-07T20:11:27.870Z,97331.91
2023-08-07T20:13:54.462Z,97339.06
2023-08-07T20:16:21.233Z,97341.50
2023-08-07T20:18:50.859Z,97347.72
2023-08-07T20:21:18.650Z,97335.47
2023-08-07T20:23:45.327Z,97332.13
2023-08-07T20:26:15.028Z,97331.50
2023-08-07T20:28:41.753Z,97320.34
2023-08-07T20:31:11.142Z,97313.38
2023-08-07T20:33:40.242Z,97313.44
2023-08-07T20:36:06.868Z,97318.75
2023-08-07T20:38:33.920Z,97328.59
2023-08-07T20:41:00.964Z,97328.47
2023-08-07T20:43:30.643Z,97322.09
2023-08-07T20:45:57.244Z,97315.66
2023-08-07T20:48:26.076Z,97317.56
2023-08-07T20:50:55.268Z,97323.59
2023-08-07T20:53:27.434Z,97322.34
2023-08-07T20:55:54.207Z,97329.00
2023-08-07T20:58:20.912Z,97330.75
2023-08-07T21:00:50.354Z,97330.81
2023-08-07T21:03:19.397Z,97332.00
2023-08-07T21:05:46.128Z,97322.09
2023-08-07T21:08:12.772Z,97317.72
2023-08-07T21:10:44.175Z,97314.22
2023-08-07T21:13:13.291Z,97324.81
2023-08-07T21:15:39.989Z,97314.78
2023-08-07T21:18:09.580Z,97320.22
2023-08-07T21:20:36.281Z,97323.56
2023-08-07T21:23:02.924Z,97326.06
2023-08-07T21:25:29.781Z,97325.06
2023-08-07T21:27:58.689Z,97320.56
2023-08-07T21:30:25.856Z,97314.41
2023-08-07T21:32:52.497Z,97319.00
2023-08-07T21:35:19.221Z,97315.19
2023-08-07T21:37:48.048Z,97316.00
2023-08-07T21:40:17.314Z,97321.91
2023-08-07T21:42:44.010Z,97316.00
2023-08-07T21:45:13.829Z,97316.34
2023-08-07T21:47:45.221Z,97314.47
2023-08-07T21:50:12.372Z,97310.72
2023-08-07T21:52:41.693Z,97316.91
2023-08-07T21:55:10.888Z,97307.50
2023-08-07T21:57:39.756Z,97300.16
2023-08-07T22:00:15.536Z,97289.56
2023-08-07T22:02:47.265Z,97292.28
2023-08-07T22:05:14.052Z,97298.09
2023-08-07T22:07:43.488Z,97299.94
2023-08-07T22:10:11.324Z,97305.31
2023-08-07T22:12:40.194Z,97302.47
2023-08-07T22:15:09.449Z,97290.97
2023-08-07T22:17:37.273Z,97307.56
2023-08-07T22:20:08.247Z,97294.50
2023-08-07T22:22:38.511Z,97293.41
2023-08-07T22:25:05.548Z,97294.25
2023-08-07T22:27:32.248Z,97291.84
2023-08-07T22:29:59.624Z,97284.69
2023-08-07T22:32:26.324Z,97289.47
2023-08-07T22:34:52.993Z,97295.88
2023-08-07T22:37:22.073Z,97298.13
2023-08-07T22:39:51.157Z,97295.56
2023-08-07T22:42:18.148Z,97292.50
2023-08-07T22:44:45.190Z,97295.97
2023-08-07T22:47:16.628Z,97293.66
2023-08-07T22:49:48.996Z,97289.06
2023-08-07T22:52:20.836Z,97286.63
2023-08-07T22:54:49.886Z,97284.69
2023-08-07T22:57:18.881Z,97282.75
2023-08-07T22:59:45.589Z,97285.03
2023-08-07T23:02:17.503Z,97284.91
2023-08-07T23:04:46.153Z,97283.94
2023-08-07T23:07:12.800Z,97270.19
2023-08-07T23:09:39.434Z,97271.44
2023-08-07T23:12:09.007Z,97279.66
2023-08-07T23:14:35.913Z,97269.16
2023-08-07T23:17:05.191Z,97271.88
2023-08-07T23:19:32.747Z,97268.72
2023-08-07T23:22:02.085Z,97271.09
2023-08-07T23:24:31.275Z,97281.25
2023-08-07T23:26:57.980Z,97279.31
2023-08-07T23:29:26.886Z,97270.34
2023-08-07T23:31:53.586Z,97265.72
2023-08-07T23:34:20.252Z,97263.84
2023-08-07T23:36:49.078Z,97266.19
2023-08-07T23:39:17.010Z,97274.00
2023-08-07T23:41:46.039Z,97267.47
2023-08-07T23:44:17.403Z,97257.72
2023-08-07T23:46:44.043Z,97244.59
2023-08-07T23:49:10.692Z,97249.25
2023-08-07T23:51:37.426Z,97244.78
2023-08-07T23:54:06.296Z,97247.63
2023-08-07T23:56:35.898Z,97247.28
2023-08-07T23:59:03.656Z,97246.09
